METAR UND TAF INFORMATION

METAR FOR LGZA
ADDS - METARS form results

(0119 UTC 26 June 2022)
Data provider http://aviationweather.gov/metar/data/
 
Forecast for: LGZA (ZAKINTHOS AIRPOR, GR)
Text: TAF LGZA 252300Z 2600/2609 VRB05KT 9999 FEW010
Forecast period: 0000 to 0900 UTC 26 June 2022
Forecast type: FROM: standard forecast or significant change
Winds: variable direction winds at 6 MPH (5 knots; 2.6 m/s)
Visibility: 6 or more miles (10+ km)
Ceiling: at least 12,000 feet AGL
Clouds: few clouds at 1000 feet AGL
Weather: no significant weather forecast for this period

 FLUGHAFENKARTE

 RUNWAY INFORMATION
Runway 16 Runway length 7310 ft Runway width 98 ft
Runway elevation 11 ft Runway displaced threshold 640 ft Runway heading 163
Runway 34 Runway length 7310 ft Runway width 98 ft
Runway elevation 12 ft Runway displaced threshold 659 ft Runway heading 343

 AIRPORT FREQUENCIES
Type A/G Name RDO Frequency 563.7 MHZ
Type TWR Name TWR Frequency 125.425 MHZ

 AIRPORT NEAR NAVIGATION AIDS
Type VOR-DME Name Zakinthos Frequency 110800 KHZ
Type NDB Name Zakinthos Frequency 326 KHZ